UAL816 KJAC-KBOI
Flight info
| Callsign | UAL816 |
|---|---|
| Flight time | 1h 8m |
| Altitude | 34000 |
| Route | IDA |
| Aircraft | A319/M-SDE3FGHIRWY/LB1 |
Departure
| Time | 2026-05-05 22:00 |
|---|---|
| Airport | Jackson Hole Airport (KJAC) |
Arrival
| Time | 2026-05-05 23:08 |
|---|---|
| Airport | Boise Air Terminal/Gowen Field (KBOI) |
| Time | Latitude | Longitude | Altitude | Speed | Heading |
|---|---|---|---|---|---|
| 2026-05-05 21:40 | 43.60419 | -110.73671 | 6423 ft | 0 kts | 109° |
| 2026-05-05 21:51 | 43.60421 | -110.73679 | 6422 ft | 4 kts | 110° |
| 2026-05-05 21:52 | 43.60449 | -110.73740 | 6419 ft | 4 kts | 153° |
| 2026-05-05 21:52 | 43.60467 | -110.73744 | 6419 ft | 1 kts | 199° |
| 2026-05-05 21:52 | 43.60471 | -110.73742 | 6419 ft | 1 kts | 199° |
| 2026-05-05 21:55 | 43.60460 | -110.73748 | 6417 ft | 4 kts | 200° |
| 2026-05-05 21:56 | 43.60408 | -110.73774 | 6419 ft | 12 kts | 200° |
| 2026-05-05 21:56 | 43.60302 | -110.73826 | 6419 ft | 20 kts | 199° |
| 2026-05-05 21:56 | 43.60147 | -110.73901 | 6418 ft | 27 kts | 199° |
| 2026-05-05 21:56 | 43.59963 | -110.73992 | 6420 ft | 26 kts | 200° |
| 2026-05-05 21:57 | 43.59903 | -110.74034 | 6422 ft | 0 kts | 239° |
| 2026-05-05 21:58 | 43.59903 | -110.74036 | 6422 ft | 1 kts | 252° |
| 2026-05-05 21:58 | 43.59911 | -110.74062 | 6423 ft | 6 kts | 284° |
| 2026-05-05 21:58 | 43.59932 | -110.74147 | 6420 ft | 10 kts | 317° |
| 2026-05-05 21:58 | 43.59982 | -110.74142 | 6421 ft | 0 kts | 21° |
| 2026-05-05 21:59 | 43.60205 | -110.74031 | 6418 ft | 71 kts | 19° |
| 2026-05-05 21:59 | 43.60897 | -110.73696 | 6424 ft | 137 kts | 19° |
| 2026-05-05 21:59 | 43.61876 | -110.73200 | 6831 ft | 155 kts | 20° |
| 2026-05-05 22:00 | 43.62915 | -110.72661 | 7482 ft | 165 kts | 17° |
| 2026-05-05 22:00 | 43.64016 | -110.72080 | 7950 ft | 178 kts | 18° |
| 2026-05-05 22:00 | 43.65258 | -110.71472 | 8206 ft | 201 kts | 18° |
| 2026-05-05 22:00 | 43.66655 | -110.70799 | 8514 ft | 224 kts | 20° |
| 2026-05-05 22:01 | 43.68001 | -110.69535 | 8845 ft | 251 kts | 49° |
| 2026-05-05 22:01 | 43.69002 | -110.67415 | 9279 ft | 275 kts | 57° |
| 2026-05-05 22:01 | 43.69911 | -110.65009 | 9986 ft | 287 kts | 58° |
| 2026-05-05 22:01 | 43.70840 | -110.62460 | 10366 ft | 309 kts | 59° |
| 2026-05-05 22:02 | 43.71863 | -110.59738 | 10752 ft | 326 kts | 58° |
| 2026-05-05 22:02 | 43.72954 | -110.56955 | 11488 ft | 332 kts | 57° |
| 2026-05-05 22:02 | 43.74093 | -110.54155 | 12269 ft | 336 kts | 56° |
| 2026-05-05 22:02 | 43.75270 | -110.51343 | 13062 ft | 340 kts | 55° |
| 2026-05-05 22:03 | 43.76627 | -110.48673 | 13804 ft | 339 kts | 40° |
| 2026-05-05 22:03 | 43.78618 | -110.47062 | 14487 ft | 331 kts | 12° |
| 2026-05-05 22:03 | 43.80872 | -110.46962 | 15180 ft | 325 kts | 345° |
| 2026-05-05 22:03 | 43.82955 | -110.48119 | 15924 ft | 324 kts | 330° |
| 2026-05-05 22:04 | 43.84882 | -110.49739 | 16666 ft | 325 kts | 327° |
| 2026-05-05 22:04 | 43.86796 | -110.51415 | 17439 ft | 326 kts | 327° |
| 2026-05-05 22:04 | 43.88712 | -110.53097 | 18202 ft | 327 kts | 327° |
| 2026-05-05 22:04 | 43.90707 | -110.54614 | 18912 ft | 327 kts | 333° |
| 2026-05-05 22:05 | 43.92790 | -110.55871 | 19680 ft | 325 kts | 337° |
| 2026-05-05 22:05 | 43.94898 | -110.56996 | 20401 ft | 325 kts | 338° |
| 2026-05-05 22:05 | 43.96954 | -110.58301 | 21084 ft | 325 kts | 327° |
| 2026-05-05 22:05 | 43.98597 | -110.60451 | 21759 ft | 330 kts | 310° |
| 2026-05-05 22:06 | 43.99593 | -110.63365 | 22410 ft | 344 kts | 291° |
| 2026-05-05 22:06 | 43.99723 | -110.66769 | 23006 ft | 368 kts | 271° |
| 2026-05-05 22:06 | 43.98873 | -110.70240 | 23560 ft | 390 kts | 256° |
| 2026-05-05 22:06 | 43.97728 | -110.73676 | 23980 ft | 394 kts | 255° |
| 2026-05-05 22:07 | 43.96551 | -110.77136 | 24434 ft | 398 kts | 255° |
| 2026-05-05 22:07 | 43.95355 | -110.80625 | 24877 ft | 403 kts | 255° |
| 2026-05-05 22:07 | 43.94144 | -110.84155 | 25268 ft | 407 kts | 255° |
| 2026-05-05 22:07 | 43.92925 | -110.87720 | 25679 ft | 410 kts | 255° |
| 2026-05-05 22:08 | 43.91704 | -110.91311 | 26093 ft | 414 kts | 256° |
| 2026-05-05 22:08 | 43.90476 | -110.94940 | 26517 ft | 417 kts | 256° |
| 2026-05-05 22:08 | 43.89239 | -110.98596 | 26911 ft | 421 kts | 256° |
| 2026-05-05 22:08 | 43.87990 | -111.02282 | 27297 ft | 424 kts | 256° |
| 2026-05-05 22:09 | 43.86729 | -111.06006 | 27606 ft | 428 kts | 255° |
| 2026-05-05 22:09 | 43.85454 | -111.09762 | 27945 ft | 433 kts | 255° |
| 2026-05-05 22:09 | 43.84162 | -111.13544 | 28322 ft | 436 kts | 255° |
| 2026-05-05 22:09 | 43.82873 | -111.17308 | 28699 ft | 440 kts | 255° |
| 2026-05-05 22:10 | 43.81557 | -111.21147 | 29077 ft | 443 kts | 255° |
| 2026-05-05 22:10 | 43.80231 | -111.25012 | 29457 ft | 446 kts | 255° |
| 2026-05-05 22:10 | 43.78897 | -111.28899 | 29829 ft | 449 kts | 255° |
| 2026-05-05 22:10 | 43.77552 | -111.32818 | 30155 ft | 452 kts | 255° |
| 2026-05-05 22:11 | 43.76196 | -111.36766 | 30386 ft | 455 kts | 254° |
| 2026-05-05 22:11 | 43.74831 | -111.40732 | 30702 ft | 458 kts | 254° |
| 2026-05-05 22:11 | 43.73457 | -111.44711 | 31003 ft | 461 kts | 254° |
| 2026-05-05 22:11 | 43.72068 | -111.48719 | 31304 ft | 463 kts | 254° |
| 2026-05-05 22:12 | 43.70670 | -111.52741 | 31611 ft | 465 kts | 254° |
| 2026-05-05 22:12 | 43.69269 | -111.56768 | 32038 ft | 464 kts | 253° |
| 2026-05-05 22:12 | 43.67871 | -111.60787 | 32442 ft | 464 kts | 253° |
| 2026-05-05 22:12 | 43.66475 | -111.64803 | 32873 ft | 463 kts | 253° |
| 2026-05-05 22:13 | 43.65079 | -111.68815 | 33210 ft | 464 kts | 253° |
| 2026-05-05 22:13 | 43.63682 | -111.72825 | 33534 ft | 464 kts | 253° |
| 2026-05-05 22:13 | 43.62280 | -111.76847 | 33838 ft | 465 kts | 253° |
| 2026-05-05 22:14 | 43.59504 | -111.84761 | 33890 ft | 451 kts | 253° |
| 2026-05-05 22:14 | 43.56780 | -111.92500 | 33917 ft | 447 kts | 253° |
| 2026-05-05 22:15 | 43.54069 | -112.00217 | 33925 ft | 447 kts | 253° |
| 2026-05-05 22:15 | 43.51356 | -112.07915 | 33925 ft | 448 kts | 253° |
| 2026-05-05 22:16 | 43.48593 | -112.15770 | 33925 ft | 461 kts | 253° |
| 2026-05-05 22:16 | 43.45804 | -112.23752 | 33914 ft | 464 kts | 253° |
| 2026-05-05 22:17 | 43.43480 | -112.30406 | 33902 ft | 465 kts | 253° |
| 2026-05-05 22:17 | 43.40672 | -112.38420 | 33871 ft | 465 kts | 253° |
| 2026-05-05 22:18 | 43.37865 | -112.46430 | 33838 ft | 465 kts | 253° |
| 2026-05-05 22:18 | 43.35059 | -112.54434 | 33806 ft | 464 kts | 253° |
| 2026-05-05 22:19 | 43.32811 | -112.62508 | 33818 ft | 433 kts | 271° |
| 2026-05-05 22:19 | 43.32685 | -112.66527 | 33804 ft | 414 kts | 284° |
| 2026-05-05 22:19 | 43.32896 | -112.70461 | 33802 ft | 413 kts | 284° |
| 2026-05-05 22:20 | 43.33334 | -112.78313 | 33799 ft | 412 kts | 284° |
| 2026-05-05 22:20 | 43.33781 | -112.86192 | 33791 ft | 419 kts | 284° |
| 2026-05-05 22:21 | 43.34281 | -112.94295 | 33780 ft | 428 kts | 284° |
| 2026-05-05 22:21 | 43.34750 | -113.02375 | 33771 ft | 417 kts | 284° |
| 2026-05-05 22:22 | 43.35133 | -113.10239 | 33768 ft | 414 kts | 284° |
| 2026-05-05 22:22 | 43.35508 | -113.18120 | 33769 ft | 413 kts | 284° |
| 2026-05-05 22:23 | 43.35889 | -113.26036 | 33772 ft | 411 kts | 284° |
| 2026-05-05 22:23 | 43.36262 | -113.33802 | 33769 ft | 410 kts | 284° |
| 2026-05-05 22:24 | 43.36638 | -113.41613 | 33726 ft | 410 kts | 284° |
| 2026-05-05 22:24 | 43.36823 | -113.45524 | 33479 ft | 410 kts | 284° |
| 2026-05-05 22:24 | 43.37003 | -113.49423 | 33208 ft | 408 kts | 284° |
| 2026-05-05 22:24 | 43.37179 | -113.53304 | 32942 ft | 406 kts | 284° |
| 2026-05-05 22:25 | 43.37353 | -113.57165 | 32677 ft | 404 kts | 284° |
| 2026-05-05 22:25 | 43.37527 | -113.61025 | 32413 ft | 402 kts | 284° |
| 2026-05-05 22:25 | 43.37699 | -113.64850 | 32156 ft | 401 kts | 284° |
| 2026-05-05 22:25 | 43.37869 | -113.68664 | 31896 ft | 399 kts | 284° |
| 2026-05-05 22:26 | 43.38037 | -113.72457 | 31640 ft | 397 kts | 284° |
| 2026-05-05 22:26 | 43.38203 | -113.76240 | 31387 ft | 395 kts | 284° |
| 2026-05-05 22:26 | 43.38363 | -113.79997 | 31094 ft | 394 kts | 283° |
| 2026-05-05 22:26 | 43.38524 | -113.83750 | 30853 ft | 393 kts | 283° |
| 2026-05-05 22:27 | 43.38688 | -113.87490 | 30618 ft | 391 kts | 283° |
| 2026-05-05 22:27 | 43.38848 | -113.91228 | 30392 ft | 390 kts | 283° |
| 2026-05-05 22:27 | 43.39004 | -113.94942 | 30165 ft | 389 kts | 283° |
| 2026-05-05 22:27 | 43.39155 | -113.98644 | 29941 ft | 387 kts | 283° |
| 2026-05-05 22:28 | 43.39309 | -114.02334 | 29682 ft | 386 kts | 283° |
| 2026-05-05 22:28 | 43.39465 | -114.06017 | 29413 ft | 384 kts | 283° |
| 2026-05-05 22:28 | 43.39618 | -114.09671 | 29170 ft | 380 kts | 283° |
| 2026-05-05 22:28 | 43.39762 | -114.13280 | 28847 ft | 376 kts | 283° |
| 2026-05-05 22:29 | 43.39907 | -114.16861 | 28498 ft | 373 kts | 283° |
| 2026-05-05 22:29 | 43.40051 | -114.20408 | 28117 ft | 369 kts | 283° |
| 2026-05-05 22:29 | 43.40189 | -114.23913 | 27802 ft | 365 kts | 282° |
| 2026-05-05 22:29 | 43.40325 | -114.27380 | 27446 ft | 362 kts | 282° |
| 2026-05-05 22:30 | 43.40459 | -114.30820 | 27090 ft | 359 kts | 282° |
| 2026-05-05 22:30 | 43.40591 | -114.34231 | 26735 ft | 355 kts | 282° |
| 2026-05-05 22:30 | 43.40721 | -114.37603 | 26254 ft | 351 kts | 282° |
| 2026-05-05 22:30 | 43.40853 | -114.40941 | 25898 ft | 348 kts | 282° |
| 2026-05-05 22:31 | 43.40981 | -114.44248 | 25559 ft | 345 kts | 282° |
| 2026-05-05 22:31 | 43.41105 | -114.47541 | 25160 ft | 344 kts | 282° |
| 2026-05-05 22:31 | 43.41229 | -114.50821 | 24793 ft | 342 kts | 282° |
| 2026-05-05 22:31 | 43.41350 | -114.54076 | 24417 ft | 340 kts | 281° |
| 2026-05-05 22:32 | 43.41470 | -114.57318 | 24040 ft | 339 kts | 281° |
| 2026-05-05 22:32 | 43.41588 | -114.60546 | 23627 ft | 337 kts | 281° |
| 2026-05-05 22:32 | 43.41704 | -114.63754 | 23254 ft | 335 kts | 280° |
| 2026-05-05 22:32 | 43.41819 | -114.66947 | 22846 ft | 333 kts | 280° |
| 2026-05-05 22:33 | 43.41933 | -114.70113 | 22468 ft | 330 kts | 280° |
| 2026-05-05 22:33 | 43.42044 | -114.73259 | 22098 ft | 329 kts | 279° |
| 2026-05-05 22:33 | 43.42152 | -114.76382 | 21724 ft | 326 kts | 279° |
| 2026-05-05 22:33 | 43.42257 | -114.79480 | 21354 ft | 323 kts | 279° |
| 2026-05-05 22:34 | 43.42363 | -114.82557 | 20985 ft | 321 kts | 278° |
| 2026-05-05 22:34 | 43.42470 | -114.85620 | 20618 ft | 320 kts | 278° |
| 2026-05-05 22:34 | 43.42575 | -114.88661 | 20248 ft | 317 kts | 278° |
| 2026-05-05 22:34 | 43.42678 | -114.91683 | 19883 ft | 315 kts | 278° |
| 2026-05-05 22:35 | 43.42782 | -114.94690 | 19514 ft | 315 kts | 277° |
| 2026-05-05 22:35 | 43.42886 | -114.97697 | 19149 ft | 315 kts | 277° |
| 2026-05-05 22:35 | 43.42990 | -115.00701 | 18784 ft | 314 kts | 277° |
| 2026-05-05 22:35 | 43.43091 | -115.03703 | 18419 ft | 314 kts | 278° |
| 2026-05-05 22:36 | 43.43189 | -115.06706 | 18055 ft | 314 kts | 277° |
| 2026-05-05 22:36 | 43.43283 | -115.09686 | 17757 ft | 310 kts | 277° |
| 2026-05-05 22:36 | 43.43374 | -115.12635 | 17409 ft | 308 kts | 277° |
| 2026-05-05 22:36 | 43.43467 | -115.15571 | 17050 ft | 307 kts | 277° |
| 2026-05-05 22:37 | 43.43559 | -115.18464 | 16703 ft | 306 kts | 277° |
| 2026-05-05 22:37 | 43.43653 | -115.21423 | 16339 ft | 305 kts | 277° |
| 2026-05-05 22:37 | 43.43743 | -115.24294 | 15990 ft | 303 kts | 277° |
| 2026-05-05 22:37 | 43.43831 | -115.27186 | 15643 ft | 301 kts | 277° |
| 2026-05-05 22:38 | 43.43917 | -115.30059 | 15294 ft | 300 kts | 277° |
| 2026-05-05 22:38 | 43.44004 | -115.32929 | 14950 ft | 300 kts | 277° |
| 2026-05-05 22:38 | 43.44089 | -115.35799 | 14601 ft | 300 kts | 277° |
| 2026-05-05 22:38 | 43.44174 | -115.38664 | 14252 ft | 299 kts | 277° |
| 2026-05-05 22:39 | 43.44259 | -115.41516 | 13901 ft | 298 kts | 277° |
| 2026-05-05 22:39 | 43.44343 | -115.44359 | 13544 ft | 297 kts | 276° |
| 2026-05-05 22:39 | 43.44425 | -115.47200 | 13174 ft | 296 kts | 276° |
| 2026-05-05 22:39 | 43.44507 | -115.50029 | 12827 ft | 296 kts | 277° |
| 2026-05-05 22:40 | 43.44589 | -115.52851 | 12482 ft | 295 kts | 277° |
| 2026-05-05 22:40 | 43.44669 | -115.55675 | 12133 ft | 295 kts | 277° |
| 2026-05-05 22:40 | 43.44748 | -115.58496 | 11784 ft | 294 kts | 277° |
| 2026-05-05 22:40 | 43.44823 | -115.61305 | 11448 ft | 293 kts | 277° |
| 2026-05-05 22:41 | 43.44897 | -115.64097 | 11105 ft | 291 kts | 277° |
| 2026-05-05 22:41 | 43.44971 | -115.66876 | 10754 ft | 290 kts | 277° |
| 2026-05-05 22:41 | 43.45050 | -115.69652 | 10382 ft | 291 kts | 277° |
| 2026-05-05 22:41 | 43.45152 | -115.72437 | 10010 ft | 291 kts | 278° |
| 2026-05-05 22:42 | 43.45267 | -115.75223 | 9633 ft | 292 kts | 278° |
| 2026-05-05 22:42 | 43.45385 | -115.78010 | 9254 ft | 292 kts | 278° |
| 2026-05-05 22:42 | 43.45384 | -115.80802 | 8883 ft | 294 kts | 268° |
| 2026-05-05 22:42 | 43.45108 | -115.83587 | 8505 ft | 292 kts | 266° |
| 2026-05-05 22:43 | 43.44830 | -115.86337 | 8145 ft | 289 kts | 266° |
| 2026-05-05 22:43 | 43.44557 | -115.89060 | 7789 ft | 286 kts | 268° |
| 2026-05-05 22:43 | 43.44626 | -115.91738 | 7429 ft | 276 kts | 287° |
| 2026-05-05 22:43 | 43.45353 | -115.94127 | 7093 ft | 268 kts | 306° |
| 2026-05-05 22:44 | 43.46415 | -115.96209 | 6761 ft | 265 kts | 307° |
| 2026-05-05 22:44 | 43.47473 | -115.98279 | 6411 ft | 262 kts | 307° |
| 2026-05-05 22:44 | 43.48510 | -116.00322 | 6089 ft | 259 kts | 306° |
| 2026-05-05 22:44 | 43.49499 | -116.02368 | 5746 ft | 255 kts | 300° |
| 2026-05-05 22:45 | 43.50269 | -116.04522 | 5419 ft | 253 kts | 297° |
| 2026-05-05 22:45 | 43.51035 | -116.06748 | 5101 ft | 255 kts | 297° |
| 2026-05-05 22:45 | 43.51786 | -116.08947 | 4766 ft | 251 kts | 297° |
| 2026-05-05 22:45 | 43.52510 | -116.11075 | 4417 ft | 246 kts | 297° |
| 2026-05-05 22:46 | 43.53235 | -116.13202 | 4091 ft | 237 kts | 297° |
| 2026-05-05 22:46 | 43.53900 | -116.15157 | 3776 ft | 220 kts | 298° |
| 2026-05-05 22:46 | 43.54523 | -116.16992 | 3490 ft | 203 kts | 297° |
| 2026-05-05 22:46 | 43.55105 | -116.18702 | 3259 ft | 190 kts | 296° |
| 2026-05-05 22:47 | 43.55648 | -116.20292 | 3002 ft | 177 kts | 296° |
| 2026-05-05 22:47 | 43.56175 | -116.21825 | 3198 ft | 185 kts | 296° |
| 2026-05-05 22:47 | 43.56778 | -116.23572 | 3520 ft | 223 kts | 297° |
| 2026-05-05 22:47 | 43.57500 | -116.25674 | 3848 ft | 258 kts | 296° |
| 2026-05-05 22:48 | 43.58285 | -116.27992 | 4445 ft | 273 kts | 296° |
| 2026-05-05 22:48 | 43.59037 | -116.30267 | 5356 ft | 245 kts | 297° |
| 2026-05-05 22:48 | 43.59686 | -116.32291 | 5711 ft | 219 kts | 297° |
| 2026-05-05 22:48 | 43.60266 | -116.34182 | 5906 ft | 212 kts | 297° |
| 2026-05-05 22:49 | 43.60825 | -116.36049 | 5974 ft | 209 kts | 297° |
| 2026-05-05 22:49 | 43.61372 | -116.37902 | 5982 ft | 209 kts | 296° |
| 2026-05-05 22:49 | 43.61938 | -116.39766 | 5983 ft | 211 kts | 296° |
| 2026-05-05 22:49 | 43.62521 | -116.41639 | 5998 ft | 213 kts | 297° |
| 2026-05-05 22:50 | 43.63105 | -116.43504 | 5998 ft | 211 kts | 296° |
| 2026-05-05 22:50 | 43.63693 | -116.45365 | 5999 ft | 212 kts | 296° |
| 2026-05-05 22:50 | 43.64287 | -116.47231 | 6002 ft | 212 kts | 297° |
| 2026-05-05 22:50 | 43.64879 | -116.49094 | 6005 ft | 212 kts | 297° |
| 2026-05-05 22:51 | 43.65405 | -116.50993 | 6001 ft | 214 kts | 284° |
| 2026-05-05 22:51 | 43.65236 | -116.53062 | 6005 ft | 226 kts | 250° |
| 2026-05-05 22:51 | 43.64234 | -116.54732 | 6008 ft | 236 kts | 219° |
| 2026-05-05 22:51 | 43.62812 | -116.55941 | 6005 ft | 238 kts | 213° |
| 2026-05-05 22:52 | 43.61372 | -116.57033 | 6009 ft | 239 kts | 212° |
| 2026-05-05 22:52 | 43.59908 | -116.58116 | 6005 ft | 239 kts | 211° |
| 2026-05-05 22:52 | 43.58286 | -116.58773 | 5986 ft | 246 kts | 182° |
| 2026-05-05 22:52 | 43.56653 | -116.58216 | 5989 ft | 248 kts | 148° |
| 2026-05-05 22:53 | 43.55418 | -116.56597 | 5993 ft | 245 kts | 122° |
| 2026-05-05 22:53 | 43.54496 | -116.54630 | 5989 ft | 243 kts | 118° |
| 2026-05-05 22:53 | 43.53622 | -116.52633 | 5989 ft | 243 kts | 118° |
| 2026-05-05 22:53 | 43.52759 | -116.50630 | 5988 ft | 243 kts | 118° |
| 2026-05-05 22:54 | 43.51903 | -116.48620 | 5990 ft | 244 kts | 117° |
| 2026-05-05 22:54 | 43.51041 | -116.46598 | 5989 ft | 245 kts | 117° |
| 2026-05-05 22:54 | 43.50184 | -116.44579 | 5987 ft | 244 kts | 117° |
| 2026-05-05 22:54 | 43.49334 | -116.42566 | 5984 ft | 244 kts | 117° |
| 2026-05-05 22:55 | 43.48468 | -116.40519 | 5990 ft | 250 kts | 117° |
| 2026-05-05 22:55 | 43.47597 | -116.38448 | 5978 ft | 250 kts | 117° |
| 2026-05-05 22:55 | 43.46719 | -116.36377 | 5977 ft | 251 kts | 117° |
| 2026-05-05 22:55 | 43.45834 | -116.34311 | 5975 ft | 250 kts | 117° |
| 2026-05-05 22:56 | 43.44954 | -116.32244 | 5969 ft | 250 kts | 117° |
| 2026-05-05 22:56 | 43.44078 | -116.30177 | 5967 ft | 251 kts | 117° |
| 2026-05-05 22:56 | 43.43196 | -116.28096 | 5967 ft | 252 kts | 117° |
| 2026-05-05 22:56 | 43.42320 | -116.26013 | 5960 ft | 251 kts | 117° |
| 2026-05-05 22:57 | 43.41450 | -116.23928 | 5990 ft | 252 kts | 117° |
| 2026-05-05 22:57 | 43.40572 | -116.21835 | 5988 ft | 254 kts | 117° |
| 2026-05-05 22:57 | 43.39680 | -116.19734 | 5985 ft | 255 kts | 117° |
| 2026-05-05 22:57 | 43.38781 | -116.17624 | 5983 ft | 256 kts | 117° |
| 2026-05-05 22:58 | 43.37881 | -116.15513 | 5978 ft | 256 kts | 117° |
| 2026-05-05 22:58 | 43.36980 | -116.13390 | 5971 ft | 258 kts | 117° |
| 2026-05-05 22:58 | 43.36089 | -116.11281 | 5969 ft | 259 kts | 117° |
| 2026-05-05 22:58 | 43.35192 | -116.09147 | 5964 ft | 257 kts | 118° |
| 2026-05-05 22:59 | 43.34313 | -116.07025 | 5958 ft | 255 kts | 117° |
| 2026-05-05 22:59 | 43.33732 | -116.05593 | 5953 ft | 252 kts | 115° |
| 2026-05-05 22:59 | 43.33329 | -116.02529 | 5954 ft | 247 kts | 84° |
| 2026-05-05 22:59 | 43.33393 | -116.00173 | 5947 ft | 247 kts | 83° |
| 2026-05-05 23:00 | 43.33529 | -115.96222 | 5933 ft | 247 kts | 82° |
| 2026-05-05 23:00 | 43.33652 | -115.93872 | 5926 ft | 244 kts | 74° |
| 2026-05-05 23:00 | 43.34282 | -115.91778 | 5931 ft | 235 kts | 49° |
| 2026-05-05 23:01 | 43.35431 | -115.90317 | 5935 ft | 225 kts | 24° |
| 2026-05-05 23:01 | 43.36871 | -115.89645 | 5887 ft | 216 kts | 2° |
| 2026-05-05 23:01 | 43.38339 | -115.89801 | 5799 ft | 211 kts | 342° |
| 2026-05-05 23:01 | 43.39755 | -115.90331 | 5724 ft | 211 kts | 342° |
| 2026-05-05 23:02 | 43.41181 | -115.90856 | 5742 ft | 213 kts | 343° |
| 2026-05-05 23:02 | 43.42615 | -115.91395 | 5741 ft | 214 kts | 340° |
| 2026-05-05 23:02 | 43.43949 | -115.92278 | 5750 ft | 214 kts | 326° |
| 2026-05-05 23:02 | 43.45072 | -115.93631 | 5751 ft | 215 kts | 311° |
| 2026-05-05 23:03 | 43.45942 | -115.95281 | 5745 ft | 207 kts | 306° |
| 2026-05-05 23:03 | 43.46725 | -115.96829 | 5767 ft | 189 kts | 306° |
| 2026-05-05 23:03 | 43.47462 | -115.98277 | 5760 ft | 182 kts | 307° |
| 2026-05-05 23:03 | 43.48194 | -115.99712 | 5757 ft | 185 kts | 307° |
| 2026-05-05 23:04 | 43.48933 | -116.01162 | 5769 ft | 185 kts | 307° |
| 2026-05-05 23:04 | 43.49613 | -116.02664 | 5748 ft | 187 kts | 299° |
| 2026-05-05 23:04 | 43.50166 | -116.04285 | 5457 ft | 185 kts | 298° |
| 2026-05-05 23:04 | 43.50709 | -116.05876 | 5213 ft | 182 kts | 299° |
| 2026-05-05 23:05 | 43.51238 | -116.07422 | 4980 ft | 174 kts | 299° |
| 2026-05-05 23:05 | 43.51745 | -116.08901 | 4751 ft | 166 kts | 298° |
| 2026-05-05 23:05 | 43.52211 | -116.10265 | 4542 ft | 146 kts | 299° |
| 2026-05-05 23:05 | 43.52624 | -116.11475 | 4282 ft | 135 kts | 299° |
| 2026-05-05 23:06 | 43.53015 | -116.12608 | 4056 ft | 130 kts | 298° |
| 2026-05-05 23:06 | 43.53396 | -116.13730 | 3904 ft | 129 kts | 297° |
| 2026-05-05 23:06 | 43.53761 | -116.14837 | 3837 ft | 125 kts | 298° |
| 2026-05-05 23:06 | 43.54127 | -116.15921 | 3670 ft | 125 kts | 298° |
| 2026-05-05 23:07 | 43.54515 | -116.16991 | 3516 ft | 124 kts | 299° |
| 2026-05-05 23:07 | 43.54877 | -116.18051 | 3349 ft | 120 kts | 298° |
| 2026-05-05 23:07 | 43.55228 | -116.19075 | 3133 ft | 117 kts | 297° |
| 2026-05-05 23:07 | 43.55582 | -116.20091 | 3013 ft | 120 kts | 297° |
| 2026-05-05 23:08 | 43.55934 | -116.21130 | 2905 ft | 119 kts | 297° |
| 2026-05-05 23:08 | 43.56227 | -116.21975 | 2880 ft | 63 kts | 295° |
| 2026-05-05 23:08 | 43.56318 | -116.22255 | 2879 ft | 20 kts | 294° |
| 2026-05-05 23:08 | 43.56363 | -116.22384 | 2881 ft | 10 kts | 297° |
| 2026-05-05 23:09 | 43.56429 | -116.22425 | 2881 ft | 15 kts | 2° |
| 2026-05-05 23:09 | 43.56559 | -116.22414 | 2881 ft | 23 kts | 3° |
| 2026-05-05 23:09 | 43.56682 | -116.22383 | 2881 ft | 14 kts | 60° |
| 2026-05-05 23:09 | 43.56644 | -116.22236 | 2881 ft | 13 kts | 116° |
| 2026-05-05 23:10 | 43.56658 | -116.22168 | 2881 ft | 9 kts | 20° |
| 2026-05-05 23:10 | 43.56724 | -116.22131 | 2881 ft | 11 kts | 24° |
| 2026-05-05 23:10 | 43.56743 | -116.22119 | 2881 ft | 0 kts | 25° |